createdAt,value
2024-01-11T00:00:54.255Z,15.90
2024-01-11T00:03:22.586Z,17.48
2024-01-11T00:05:49.565Z,17.02
2024-01-11T00:08:16.580Z,15.80
2024-01-11T00:10:43.512Z,15.55
2024-01-11T00:13:10.508Z,15.60
2024-01-11T00:15:37.569Z,15.82
2024-01-11T00:18:05.265Z,14.70
2024-01-11T00:20:33.761Z,15.57
2024-01-11T00:23:00.772Z,16.23
2024-01-11T00:25:27.679Z,16.63
2024-01-11T00:27:54.564Z,15.23
2024-01-11T00:30:21.450Z,14.60
2024-01-11T00:32:48.447Z,15.00
2024-01-11T00:35:15.688Z,15.55
2024-01-11T00:37:44.017Z,14.65
2024-01-11T00:40:11.632Z,14.65
2024-01-11T00:42:38.526Z,15.45
2024-01-11T00:45:06.187Z,14.68
2024-01-11T00:47:33.156Z,15.68
2024-01-11T00:50:00.217Z,15.38
2024-01-11T00:52:27.137Z,14.15
2024-01-11T00:54:55.480Z,13.18
2024-01-11T00:57:22.896Z,13.75
2024-01-11T00:59:49.988Z,14.13
2024-01-11T01:02:16.911Z,13.77
2024-01-11T01:04:43.792Z,13.45
2024-01-11T01:07:10.719Z,14.30
2024-01-11T01:09:37.695Z,13.88
2024-01-11T01:12:07.347Z,13.00
2024-01-11T01:14:34.468Z,13.45
2024-01-11T01:17:01.385Z,13.90
2024-01-11T01:19:28.467Z,14.02
2024-01-11T01:21:55.466Z,14.52
2024-01-11T01:24:22.636Z,13.65
2024-01-11T01:26:49.589Z,13.23
2024-01-11T01:29:17.926Z,12.48
2024-01-11T01:31:44.797Z,14.60
2024-01-11T01:34:11.742Z,12.27
2024-01-11T01:36:38.699Z,12.20
2024-01-11T01:39:05.581Z,13.43
2024-01-11T01:41:32.570Z,13.02
2024-01-11T01:43:59.541Z,14.20
2024-01-11T01:46:29.240Z,14.50
2024-01-11T01:48:59.072Z,14.10
2024-01-11T01:51:29.811Z,14.25
2024-01-11T01:53:58.267Z,13.80
2024-01-11T01:56:25.585Z,14.80
2024-01-11T01:58:54.383Z,16.25
2024-01-11T02:01:22.885Z,13.80
2024-01-11T02:03:53.328Z,14.68
2024-01-11T02:06:23.703Z,14.18
2024-01-11T02:08:53.161Z,14.70
2024-01-11T02:11:21.107Z,13.32
2024-01-11T02:13:48.155Z,14.52
2024-01-11T02:16:15.455Z,13.23
2024-01-11T02:18:42.454Z,13.98
2024-01-11T02:21:15.217Z,13.65
2024-01-11T02:23:45.109Z,12.82
2024-01-11T02:26:14.117Z,14.40
2024-01-11T02:28:44.821Z,13.90
2024-01-11T02:31:12.391Z,12.77
2024-01-11T02:33:40.125Z,13.13
2024-01-11T02:36:07.455Z,13.98
2024-01-11T02:38:35.426Z,14.80
2024-01-11T02:41:02.398Z,13.55
2024-01-11T02:43:30.662Z,14.23
2024-01-11T02:45:57.795Z,13.15
2024-01-11T02:48:28.995Z,13.20
2024-01-11T02:50:56.435Z,12.23
2024-01-11T02:53:23.384Z,13.80
2024-01-11T02:55:50.380Z,12.48
2024-01-11T02:58:17.579Z,12.80
2024-01-11T03:00:45.988Z,12.88
2024-01-11T03:03:13.125Z,11.82
2024-01-11T03:05:40.171Z,12.43
2024-01-11T03:08:07.117Z,13.00
2024-01-11T03:10:34.015Z,13.00
2024-01-11T03:13:01.347Z,11.98
2024-01-11T03:15:28.263Z,12.43
2024-01-11T03:17:56.921Z,12.20
2024-01-11T03:20:23.948Z,12.75
2024-01-11T03:22:50.854Z,14.38
2024-01-11T03:25:17.729Z,14.02
2024-01-11T03:27:44.784Z,14.07
2024-01-11T03:30:12.571Z,13.57
2024-01-11T03:32:39.721Z,13.63
2024-01-11T03:35:08.915Z,12.80
2024-01-11T03:37:36.138Z,12.75
2024-01-11T03:40:04.493Z,12.85
2024-01-11T03:42:31.450Z,13.18
2024-01-11T03:44:58.378Z,13.25
2024-01-11T03:47:25.336Z,13.35
2024-01-11T03:49:52.306Z,12.40
2024-01-11T03:52:20.582Z,14.27
2024-01-11T03:54:47.470Z,13.55
2024-01-11T03:57:14.684Z,12.77
2024-01-11T03:59:41.779Z,14.13
2024-01-11T04:02:08.810Z,13.07
2024-01-11T04:04:35.883Z,11.60
2024-01-11T04:07:02.839Z,13.32
2024-01-11T04:09:31.104Z,13.30
2024-01-11T04:11:58.029Z,12.40
2024-01-11T04:14:25.007Z,12.60
2024-01-11T04:16:51.971Z,11.60
2024-01-11T04:19:22.483Z,13.02
2024-01-11T04:21:50.647Z,12.55
2024-01-11T04:24:17.563Z,13.90
2024-01-11T04:26:45.961Z,12.18
2024-01-11T04:29:12.927Z,12.35
2024-01-11T04:31:39.825Z,12.55
2024-01-11T04:34:06.879Z,12.20
2024-01-11T04:36:33.790Z,12.52
2024-01-11T04:39:01.976Z,14.10
2024-01-11T04:41:28.899Z,12.75
2024-01-11T04:43:57.356Z,12.88
2024-01-11T04:46:24.602Z,12.70
2024-01-11T04:48:51.865Z,13.50
2024-01-11T04:51:19.448Z,13.13
2024-01-11T04:53:47.394Z,13.02
2024-01-11T04:56:15.936Z,14.13
2024-01-11T04:58:43.843Z,12.95
2024-01-11T05:01:15.293Z,11.85
2024-01-11T05:03:42.610Z,13.13
2024-01-11T05:06:09.659Z,12.90
2024-01-11T05:08:36.715Z,13.00
2024-01-11T05:11:03.998Z,13.20
2024-01-11T05:13:31.053Z,14.70
2024-01-11T05:15:57.976Z,13.10
2024-01-11T05:18:26.603Z,13.05
2024-01-11T05:20:53.519Z,12.48
2024-01-11T05:23:20.378Z,14.20
2024-01-11T05:25:47.286Z,11.95
2024-01-11T05:28:14.263Z,11.68
2024-01-11T05:30:42.356Z,11.63
2024-01-11T05:33:09.430Z,12.23
2024-01-11T05:35:38.107Z,12.70
2024-01-11T05:38:05.060Z,12.73
2024-01-11T05:40:32.198Z,13.02
2024-01-11T05:42:59.066Z,13.02
2024-01-11T05:45:32.091Z,11.75
2024-01-11T05:48:07.897Z,12.55
2024-01-11T05:50:34.968Z,12.10
2024-01-11T05:53:03.637Z,13.07
2024-01-11T05:55:30.554Z,13.00
2024-01-11T05:57:57.636Z,11.70
2024-01-11T06:00:24.662Z,12.13
2024-01-11T06:02:51.591Z,12.63
2024-01-11T06:05:18.769Z,12.65
2024-01-11T06:07:45.668Z,11.88
2024-01-11T06:10:14.408Z,11.90
2024-01-11T06:12:41.296Z,12.20
2024-01-11T06:15:08.975Z,13.60
2024-01-11T06:17:35.962Z,12.77
2024-01-11T06:20:03.231Z,11.48
2024-01-11T06:22:30.189Z,11.95
2024-01-11T06:24:57.315Z,11.90
2024-01-11T06:27:25.653Z,12.07
2024-01-11T06:29:52.767Z,11.85
2024-01-11T06:32:19.788Z,12.30
2024-01-11T06:34:46.945Z,11.63
2024-01-11T06:37:13.956Z,12.05
2024-01-11T06:39:40.870Z,11.23
2024-01-11T06:42:07.748Z,10.95
2024-01-11T06:44:36.120Z,10.85
2024-01-11T06:47:03.583Z,11.43
2024-01-11T06:49:38.291Z,11.80
2024-01-11T06:52:05.537Z,12.05
2024-01-11T06:54:32.560Z,11.90
2024-01-11T06:56:59.442Z,11.07
2024-01-11T06:59:27.169Z,11.45
2024-01-11T07:01:55.710Z,11.20
2024-01-11T07:04:22.604Z,11.30
2024-01-11T07:06:49.833Z,10.57
2024-01-11T07:09:16.850Z,10.82
2024-01-11T07:11:44.215Z,10.50
2024-01-11T07:14:11.276Z,10.10
2024-01-11T07:16:38.232Z,11.13
2024-01-11T07:19:06.632Z,10.30
2024-01-11T07:21:33.675Z,10.10
2024-01-11T07:24:00.899Z,10.05
2024-01-11T07:26:28.225Z,10.40
2024-01-11T07:28:55.493Z,11.23
2024-01-11T07:31:22.405Z,11.38
2024-01-11T07:33:49.710Z,10.95
2024-01-11T07:36:18.208Z,11.32
2024-01-11T07:38:45.133Z,11.32
2024-01-11T07:41:12.038Z,11.20
2024-01-11T07:43:48.827Z,11.40
2024-01-11T07:46:26.198Z,12.05
2024-01-11T07:49:00.599Z,12.25
2024-01-11T07:51:29.165Z,12.07
2024-01-11T07:53:56.081Z,13.35
2024-01-11T07:56:23.112Z,12.57
2024-01-11T07:58:50.406Z,13.02
2024-01-11T08:01:18.112Z,15.57
2024-01-11T08:03:45.351Z,12.13
2024-01-11T08:06:12.665Z,12.32
2024-01-11T08:08:41.273Z,11.68
2024-01-11T08:11:08.904Z,11.82
2024-01-11T08:13:36.061Z,12.35
2024-01-11T08:16:03.155Z,13.00
2024-01-11T08:18:30.490Z,13.73
2024-01-11T08:20:57.385Z,15.43
2024-01-11T08:23:24.328Z,12.52
2024-01-11T08:25:52.687Z,13.07
2024-01-11T08:28:19.793Z,12.93
2024-01-11T08:30:46.731Z,13.82
2024-01-11T08:33:13.837Z,13.45
2024-01-11T08:35:40.765Z,13.80
2024-01-11T08:38:07.811Z,12.98
2024-01-11T08:40:34.924Z,14.88
2024-01-11T08:43:03.765Z,14.02
2024-01-11T08:45:30.640Z,14.82
2024-01-11T08:47:58.053Z,14.05
2024-01-11T08:50:26.126Z,13.82
2024-01-11T08:52:54.570Z,14.85
2024-01-11T08:55:21.548Z,14.20
2024-01-11T08:57:48.460Z,14.63
2024-01-11T09:00:17.451Z,13.65
2024-01-11T09:02:44.624Z,13.73
2024-01-11T09:05:11.797Z,13.90
2024-01-11T09:07:38.828Z,13.77
2024-01-11T09:10:07.381Z,13.77
2024-01-11T09:12:34.281Z,14.57
2024-01-11T09:15:01.241Z,12.52
2024-01-11T09:17:29.694Z,12.57
2024-01-11T09:19:57.953Z,12.18
2024-01-11T09:22:24.943Z,13.32
2024-01-11T09:24:51.988Z,13.52
2024-01-11T09:27:19.136Z,13.48
2024-01-11T09:29:46.779Z,13.25
2024-01-11T09:32:14.330Z,13.38
2024-01-11T09:34:42.952Z,12.38
2024-01-11T09:37:10.068Z,12.07
2024-01-11T09:39:36.966Z,13.18
2024-01-11T09:42:08.350Z,14.10
2024-01-11T09:44:35.426Z,14.00
2024-01-11T09:47:04.233Z,13.77
2024-01-11T09:49:34.007Z,13.23
2024-01-11T09:52:03.674Z,13.70
2024-01-11T09:54:31.088Z,14.63
2024-01-11T09:57:00.425Z,14.32
2024-01-11T09:59:27.702Z,13.85
2024-01-11T10:01:54.751Z,14.82
2024-01-11T10:04:22.028Z,13.90
2024-01-11T10:06:51.089Z,14.68
2024-01-11T10:09:19.466Z,14.65
2024-01-11T10:11:46.479Z,13.43
2024-01-11T10:14:13.832Z,14.57
2024-01-11T10:16:42.615Z,13.98
2024-01-11T10:19:09.709Z,14.57
2024-01-11T10:21:39.457Z,14.18
2024-01-11T10:24:06.859Z,14.32
2024-01-11T10:26:36.702Z,14.32
2024-01-11T10:29:03.755Z,14.43
2024-01-11T10:31:31.407Z,16.58
2024-01-11T10:33:58.966Z,16.67
2024-01-11T10:36:26.308Z,16.65
2024-01-11T10:38:54.960Z,16.92
2024-01-11T10:41:21.987Z,17.17
2024-01-11T10:43:51.044Z,17.38
2024-01-11T10:46:22.690Z,16.73
2024-01-11T10:48:56.019Z,16.30
2024-01-11T10:51:24.438Z,16.65
2024-01-11T10:53:52.462Z,17.83
2024-01-11T10:56:21.320Z,17.75
2024-01-11T10:58:50.239Z,18.52
2024-01-11T11:01:18.805Z,19.73
2024-01-11T11:03:46.499Z,18.58
2024-01-11T11:06:14.780Z,17.60
2024-01-11T11:08:43.444Z,17.88
2024-01-11T11:11:12.362Z,17.45
2024-01-11T11:13:42.413Z,18.38
2024-01-11T11:16:11.011Z,18.38
2024-01-11T11:18:38.109Z,18.33
2024-01-11T11:21:10.521Z,19.10
2024-01-11T11:23:38.333Z,18.27
2024-01-11T11:26:07.344Z,18.63
2024-01-11T11:28:34.341Z,18.80
2024-01-11T11:31:03.458Z,18.05
2024-01-11T11:33:32.144Z,19.65
2024-01-11T11:36:00.190Z,18.65
2024-01-11T11:38:29.052Z,18.73
2024-01-11T11:40:57.924Z,19.50
2024-01-11T11:43:25.364Z,18.75
2024-01-11T11:45:53.717Z,19.80
2024-01-11T11:48:53.521Z,18.85
2024-01-11T11:51:21.330Z,20.15
2024-01-11T11:53:50.290Z,19.90
2024-01-11T11:56:19.292Z,19.90
2024-01-11T11:58:47.671Z,20.88
2024-01-11T12:01:15.577Z,20.63
2024-01-11T12:03:43.381Z,21.55
2024-01-11T12:06:12.341Z,21.25
2024-01-11T12:08:43.634Z,20.80
2024-01-11T12:11:14.000Z,22.25
2024-01-11T12:13:42.098Z,22.50
2024-01-11T12:16:09.073Z,22.77
2024-01-11T12:18:36.763Z,22.58
2024-01-11T12:21:05.451Z,22.73
2024-01-11T12:23:34.534Z,21.73
2024-01-11T12:26:03.159Z,21.20
2024-01-11T12:28:30.737Z,22.90
2024-01-11T12:30:57.858Z,22.33
2024-01-11T12:33:27.403Z,22.80
2024-01-11T12:35:55.884Z,21.90
2024-01-11T12:38:23.233Z,21.98
2024-01-11T12:40:51.702Z,22.27
2024-01-11T12:43:20.076Z,21.45
2024-01-11T12:45:47.406Z,21.55
2024-01-11T12:48:15.078Z,21.40
2024-01-11T12:50:42.299Z,22.15
2024-01-11T12:53:10.737Z,21.75
2024-01-11T12:55:48.007Z,23.13
2024-01-11T12:58:24.124Z,23.38
2024-01-11T13:00:51.392Z,22.65
2024-01-11T13:03:18.607Z,21.42
2024-01-11T13:05:46.084Z,22.73
2024-01-11T13:08:13.377Z,22.70
2024-01-11T13:10:40.480Z,22.65
2024-01-11T13:13:09.737Z,23.45
2024-01-11T13:15:38.799Z,22.98
2024-01-11T13:18:06.112Z,22.73
2024-01-11T13:20:33.616Z,22.20
2024-01-11T13:23:20.795Z,22.80
2024-01-11T13:25:49.986Z,20.15
2024-01-11T13:28:18.463Z,22.50
2024-01-11T13:30:47.813Z,22.98
2024-01-11T13:33:15.721Z,23.48
2024-01-11T13:35:43.114Z,23.75
2024-01-11T13:38:10.894Z,23.65
2024-01-11T13:40:38.507Z,23.27
2024-01-11T13:43:05.525Z,23.73
2024-01-11T13:45:32.703Z,22.08
2024-01-11T13:48:01.915Z,23.33
2024-01-11T13:50:29.135Z,23.05
2024-01-11T13:52:56.169Z,23.83
2024-01-11T13:55:23.315Z,23.60
2024-01-11T13:57:53.036Z,22.25
2024-01-11T14:00:20.665Z,23.65
2024-01-11T14:02:49.045Z,23.30
2024-01-11T14:05:18.685Z,23.58
2024-01-11T14:07:46.341Z,23.42
2024-01-11T14:10:14.532Z,21.23
2024-01-11T14:12:41.847Z,22.02
2024-01-11T14:15:11.064Z,22.13
2024-01-11T14:17:38.825Z,22.80
2024-01-11T14:20:07.443Z,22.55
2024-01-11T14:22:36.446Z,22.58
2024-01-11T14:25:04.033Z,22.30
2024-01-11T14:27:35.152Z,23.52
2024-01-11T14:30:02.693Z,22.27
2024-01-11T14:32:36.459Z,24.17
2024-01-11T14:35:06.876Z,22.58
2024-01-11T14:37:37.380Z,23.25
2024-01-11T14:40:05.311Z,24.02
2024-01-11T14:42:32.529Z,24.23
2024-01-11T14:44:59.620Z,24.30
2024-01-11T14:47:27.764Z,23.23
2024-01-11T14:49:54.847Z,24.42
2024-01-11T14:52:21.910Z,24.25
2024-01-11T14:54:51.143Z,24.10
2024-01-11T14:57:18.676Z,23.85
2024-01-11T14:59:45.654Z,23.23
2024-01-11T15:02:13.084Z,22.98
2024-01-11T15:04:40.582Z,22.95
2024-01-11T15:07:08.083Z,22.00
2024-01-11T15:09:38.154Z,24.58
2024-01-11T15:12:09.247Z,22.77
2024-01-11T15:14:36.695Z,22.58
2024-01-11T15:17:04.333Z,22.67
2024-01-11T15:19:31.750Z,24.35
2024-01-11T15:21:59.090Z,23.52
2024-01-11T15:24:26.273Z,24.35
2024-01-11T15:26:54.034Z,25.40
2024-01-11T15:29:22.747Z,23.05
2024-01-11T15:31:50.765Z,25.63
2024-01-11T15:34:18.042Z,24.17
2024-01-11T15:36:45.607Z,24.38
2024-01-11T15:39:20.796Z,24.15
2024-01-11T15:41:54.683Z,24.65
2024-01-11T15:44:23.541Z,24.15
2024-01-11T15:46:50.720Z,23.45
2024-01-11T15:49:17.891Z,23.63
2024-01-11T15:51:44.915Z,25.88
2024-01-11T15:54:12.146Z,24.13
2024-01-11T15:56:39.361Z,25.30
2024-01-11T15:59:07.037Z,25.38
2024-01-11T16:01:38.102Z,24.77
2024-01-11T16:04:07.724Z,24.60
2024-01-11T16:06:35.094Z,23.58
2024-01-11T16:09:02.103Z,24.50
2024-01-11T16:11:29.286Z,24.58
2024-01-11T16:13:56.300Z,25.05
2024-01-11T16:16:23.554Z,23.98
2024-01-11T16:18:51.951Z,25.17
2024-01-11T16:21:19.226Z,23.63
2024-01-11T16:23:46.612Z,24.50
2024-01-11T16:26:13.964Z,24.85
2024-01-11T16:28:41.154Z,25.08
2024-01-11T16:31:08.354Z,23.73
2024-01-11T16:33:35.768Z,24.92
2024-01-11T16:36:05.455Z,24.13
2024-01-11T16:38:32.659Z,23.92
2024-01-11T16:40:59.929Z,22.15
2024-01-11T16:43:28.277Z,22.33
2024-01-11T16:45:55.387Z,22.80
2024-01-11T16:48:22.429Z,24.70
2024-01-11T16:50:49.659Z,22.80
2024-01-11T16:53:18.922Z,24.17
2024-01-11T16:55:46.245Z,23.98
2024-01-11T16:58:13.523Z,24.33
2024-01-11T17:00:40.666Z,23.38
2024-01-11T17:03:08.385Z,23.15
2024-01-11T17:05:36.415Z,23.35
2024-01-11T17:08:03.866Z,22.40
2024-01-11T17:10:32.312Z,20.30
2024-01-11T17:13:00.299Z,20.60
2024-01-11T17:15:27.191Z,22.45
2024-01-11T17:17:54.139Z,22.23
2024-01-11T17:20:21.450Z,20.88
2024-01-11T17:22:50.277Z,21.70
2024-01-11T17:25:18.578Z,22.50
2024-01-11T17:27:47.040Z,23.60
2024-01-11T17:30:14.535Z,24.63
2024-01-11T17:32:41.567Z,23.05
2024-01-11T17:35:09.527Z,22.20
2024-01-11T17:37:37.344Z,22.27
2024-01-11T17:40:05.150Z,24.90
2024-01-11T17:42:32.037Z,22.40
2024-01-11T17:45:00.508Z,22.42
2024-01-11T17:47:27.589Z,22.90
2024-01-11T17:49:54.604Z,21.50
2024-01-11T17:52:21.539Z,22.60
2024-01-11T17:54:48.638Z,23.15
2024-01-11T17:57:15.611Z,23.75
2024-01-11T17:59:45.751Z,23.48
2024-01-11T18:02:14.294Z,24.80
2024-01-11T18:04:42.797Z,21.02
2024-01-11T18:07:09.875Z,22.38
2024-01-11T18:09:36.805Z,23.20
2024-01-11T18:12:04.437Z,21.42
2024-01-11T18:14:31.336Z,21.45
2024-01-11T18:16:58.225Z,20.85
2024-01-11T18:19:26.783Z,23.15
2024-01-11T18:21:53.821Z,21.60
2024-01-11T18:24:20.729Z,21.80
2024-01-11T18:26:47.650Z,21.88
2024-01-11T18:29:14.613Z,22.73
2024-01-11T18:31:41.603Z,21.98
2024-01-11T18:34:08.904Z,21.92
2024-01-11T18:36:45.537Z,18.85
2024-01-11T18:39:12.740Z,19.13
2024-01-11T18:41:41.093Z,19.77
2024-01-11T18:44:08.031Z,19.77
2024-01-11T18:46:39.031Z,20.42
2024-01-11T18:49:06.033Z,17.77
2024-01-11T18:51:33.732Z,18.67
2024-01-11T18:54:02.905Z,18.45
2024-01-11T18:56:29.904Z,19.15
2024-01-11T18:58:56.813Z,19.25
2024-01-11T19:01:23.898Z,18.20
2024-01-11T19:03:50.941Z,18.27
2024-01-11T19:06:17.955Z,18.20
2024-01-11T19:08:46.144Z,19.35
2024-01-11T19:11:15.365Z,17.85
2024-01-11T19:13:42.565Z,17.60
2024-01-11T19:16:09.549Z,20.30
2024-01-11T19:18:36.652Z,18.20
2024-01-11T19:21:04.235Z,16.67
2024-01-11T19:23:31.349Z,16.98
2024-01-11T19:25:58.680Z,16.85
2024-01-11T19:28:27.017Z,17.27
2024-01-11T19:30:54.356Z,17.20
2024-01-11T19:33:21.379Z,17.25
2024-01-11T19:35:48.833Z,16.42
2024-01-11T19:38:15.887Z,15.68
2024-01-11T19:40:42.965Z,15.98
2024-01-11T19:43:10.237Z,17.90
2024-01-11T19:45:38.729Z,16.73
2024-01-11T19:48:06.177Z,16.02
2024-01-11T19:50:33.354Z,18.25
2024-01-11T19:53:00.396Z,16.48
2024-01-11T19:55:27.335Z,17.50
2024-01-11T19:57:54.300Z,18.02
2024-01-11T20:00:21.326Z,16.70
2024-01-11T20:02:49.640Z,16.15
2024-01-11T20:05:16.790Z,15.70
2024-01-11T20:07:43.684Z,15.63
2024-01-11T20:10:10.856Z,16.33
2024-01-11T20:12:38.101Z,15.38
2024-01-11T20:15:05.977Z,15.20
2024-01-11T20:17:33.280Z,14.75
2024-01-11T20:20:02.699Z,15.05
2024-01-11T20:22:29.776Z,16.55
2024-01-11T20:24:56.762Z,15.40
2024-01-11T20:27:23.927Z,16.77
2024-01-11T20:29:51.212Z,15.63
2024-01-11T20:32:18.239Z,15.70
2024-01-11T20:34:45.343Z,16.25
2024-01-11T20:37:14.240Z,16.77
2024-01-11T20:39:41.208Z,17.05
2024-01-11T20:42:08.195Z,16.80
2024-01-11T20:44:37.219Z,16.25
2024-01-11T20:47:04.583Z,17.05
2024-01-11T20:49:31.558Z,15.20
2024-01-11T20:51:58.698Z,15.45
2024-01-11T20:54:27.305Z,17.08
2024-01-11T20:56:54.322Z,15.35
2024-01-11T20:59:21.320Z,16.20
2024-01-11T21:01:50.219Z,15.98
2024-01-11T21:04:17.194Z,16.40
2024-01-11T21:06:44.201Z,15.27
2024-01-11T21:09:11.233Z,15.57
2024-01-11T21:11:39.622Z,15.75
2024-01-11T21:14:06.575Z,16.20
2024-01-11T21:16:33.469Z,14.30
2024-01-11T21:19:00.558Z,15.20
2024-01-11T21:21:27.687Z,16.88
2024-01-11T21:23:54.900Z,14.50
2024-01-11T21:26:22.439Z,15.15
2024-01-11T21:28:50.841Z,15.00
2024-01-11T21:31:17.725Z,14.90
2024-01-11T21:33:44.786Z,15.43
2024-01-11T21:36:11.800Z,14.73
2024-01-11T21:38:38.803Z,14.90
2024-01-11T21:41:05.926Z,16.20
2024-01-11T21:43:32.873Z,16.30
2024-01-11T21:46:01.294Z,16.17
2024-01-11T21:48:28.395Z,15.02
2024-01-11T21:50:55.530Z,13.88
2024-01-11T21:53:22.636Z,16.77
2024-01-11T21:55:49.559Z,15.32
2024-01-11T21:58:16.441Z,14.38
2024-01-11T22:00:43.360Z,16.65
2024-01-11T22:03:11.769Z,15.80
2024-01-11T22:05:38.854Z,15.85
2024-01-11T22:08:05.826Z,16.85
2024-01-11T22:10:32.731Z,16.08
2024-01-11T22:12:59.907Z,15.30
2024-01-11T22:15:26.831Z,15.93
2024-01-11T22:17:53.875Z,15.45
2024-01-11T22:20:22.488Z,17.33
2024-01-11T22:22:49.550Z,16.58
2024-01-11T22:25:16.547Z,16.45
2024-01-11T22:27:43.471Z,16.05
2024-01-11T22:30:11.842Z,15.82
2024-01-11T22:32:38.966Z,16.50
2024-01-11T22:35:06.355Z,14.98
2024-01-11T22:37:34.808Z,15.93
2024-01-11T22:40:01.787Z,16.33
2024-01-11T22:42:30.078Z,16.08
2024-01-11T22:44:57.089Z,17.02
2024-01-11T22:47:24.296Z,17.15
2024-01-11T22:49:51.346Z,17.77
2024-01-11T22:52:18.628Z,17.85
2024-01-11T22:54:47.159Z,16.33
2024-01-11T22:57:15.007Z,15.60
2024-01-11T22:59:42.033Z,16.65
2024-01-11T23:02:09.079Z,15.35
2024-01-11T23:04:36.028Z,15.40
2024-01-11T23:07:03.088Z,16.30
2024-01-11T23:09:29.991Z,14.15
2024-01-11T23:11:58.297Z,16.48
2024-01-11T23:14:25.337Z,15.80
2024-01-11T23:16:52.526Z,15.05
2024-01-11T23:19:20.193Z,16.00
2024-01-11T23:21:47.127Z,14.68
2024-01-11T23:24:14.112Z,14.57
2024-01-11T23:26:41.068Z,14.48
2024-01-11T23:29:09.442Z,15.15
2024-01-11T23:31:36.345Z,13.98
2024-01-11T23:34:03.453Z,14.40
2024-01-11T23:36:30.497Z,12.98
2024-01-11T23:38:57.434Z,12.93
2024-01-11T23:41:24.522Z,14.10
2024-01-11T23:43:51.494Z,13.43
2024-01-11T23:46:19.836Z,13.75
2024-01-11T23:48:46.854Z,12.15
2024-01-11T23:51:14.100Z,12.93
2024-01-11T23:53:41.209Z,13.07
2024-01-11T23:56:08.128Z,13.30
2024-01-11T23:58:35.037Z,10.82
